グアム の空港の天気 - METARとTAF

グアム国際空港 ( PGUM / GUM ) - グアム ハガニア
飛行場実況気象(Metar)
観測時間01/21 17:54 ChST (01/21 07:54 UTC)
風向・風速北東 7m/s
視程10km以上
天気現象
少しの雲 雲底高度 760m
全天の4割程度の雲 雲底高度 1010m
気温28.3℃
湿度77%
気圧1008.7hPa
METARPGUM 210754Z 05013KT 10SM FEW025 SCT033 28/24 A2981 RMK AO2 SLP087 T02830239
過去の天気等 Google飛行場航空写真 Wunderground天気予報

過去48時間のMETAR

飛行場予報(TAF)
発表時間: 1/21 15:22 ChST (1/21 05:22 UTC)
予報対象時間: 21日16時 ChST ~ 22日22時 ChST
風向・風速東北東 8m/s 瞬間風速 12m/s
視程10km以上
天気現象周辺でしゅう雨
全天の4割程度の雲 雲底高度 760m
全天の4割程度の雲 雲底高度 1,220m
21日19時 ChST から
風向・風速北東 6m/s
視程10km以上
全天の4割程度の雲 雲底高度 730m
PGUM 210522Z 2106/2212 07016G24KT P6SM VCSH SCT025 SCT040
FM210900 05011KT P6SM SCT024